Rakoskert, Hungary

11:39 PM CET on December 08, 2016 (GMT +0100)
Szigetcsep u. | | Change Station

Elev 669 ft 47.47 °N, 19.31 °E | Updated 40 seconds ago

Overcast
Overcast
27.9 °F
Feels Like 28 °F
N
0.0
Wind Variable Wind from SSW
Gusts 0.0 mph

Today
High -- | Low -- °F
--% Chance of Precip.
Yesterday
High -- | Low -- °F
Precip. -- in
Pressure 30.48 in
Visibility 0.6 miles
Clouds Overcast 100 ft
Windchill 28 °F
Dew Point 27 °F
Humidity 95%
Rainfall 0.00 in
Snow Depth Not available.
7:17 AM 3:51 PM
Waxing Gibbous, 67% visible
METAR LHBP 082230Z 25004KT 220V280 1000 R31L/P1500N R31R/P1500N BR OVC001 M02/M02 Q1032 BECMG 0700 FZFG
Pressure 30.48 in
Visibility 0.6 miles
Clouds Overcast 100 ft
Windchill 28 °F
Dew Point 27 °F
Humidity 95%
Rainfall 0.00 in
Snow Depth Not available.
7:17 AM 3:51 PM
Waxing Gibbous, 67% visible
METAR LHBP 082230Z 25004KT 220V280 1000 R31L/P1500N R31R/P1500N BR OVC001 M02/M02 Q1032 BECMG 0700 FZFG

10-Day Weather Forecast

×

Almanac

Astronomy

Dec. 08, 2016 Rise Set
Actual Time
Civil Twilight
Nautical Twilight
Astronomical Twilight
Moon
Length of Visible Light
Length of Day
Tomorrow will be .
, % of the Moon is Illuminated

Today's Extremes

Country Highs Country Lows

Community

WunderPhotos

Upload Photos

1,956,277 photos uploaded!

WunderBlog® & News

Nearby

Air Quality

  Air Quality AQ Index Pollutant
Not available.

Snow Depth

Station Depth Elevation

Earthquake Activity

City Distance Mag. Time & Date
Minimum magnitude displayed is 2.5.

Coastal Water Temperatures

Place Temperature

Stations

Nearby Weather Stations

Station Location Temp. Windchill Dew Point Humidity Wind Precip. Elev Updated Type